Flight Track Log - Related Links

Times and Time Zones

All times are in EDT time to prevent confusion due to time zone crossing. See the N588AC flight status page for this flight to view local times or setup timezone preferences in your user account.

Time Position Orientation Groundspeed Altitude Reporting Facility
EDT Latitude Longitude Course Direction KTS MPH feet Rate Location/Type
Sat 11:21:11 AM 37.0906 -80.4400 160° South 296 341 8,200  Level Washington Center
Sat 11:22:11 AM 37.0256 -80.3997 154° Southeast 289 333 11,300 2,975 Climbing Washington Center
Sat 11:23:12 AM 36.9739 -80.3314 133° Southeast 266 306 14,200 2,723 Climbing Washington Center
Sat 11:24:10 AM 36.9308 -80.2636 128° Southeast 266 306 16,700 2,237 Climbing Washington Center
Sat 11:25:10 AM 36.8772 -80.1878 131° Southeast 271 312 18,600 1,140 Climbing Washington Center
Sat 11:26:00 AM 36.7903 -80.2327 160° South  Level FlightAware Approximate
Sat 11:26:11 AM 36.8181 -80.1039 131° Southeast 298 343 19,000  Level Washington Center
Sat 11:27:12 AM 36.7428 -79.9958 131° Southeast 353 406 19,000  Level Washington Center
Sat 11:28:10 AM 36.6733 -79.8986 132° Southeast 366 421 19,000  Level Washington Center
Sat 11:29:10 AM 36.6078 -79.8017 130° Southeast 371 427 19,000  Level Washington Center
Sat 11:30:11 AM 36.5419 -79.7131 133° Southeast 371 427 19,000 492 Level Washington Center
Sat 11:31:12 AM 36.4744 -79.6189 132° Southeast 371 427 20,000 1,140 Climbing Washington Center
Sat 11:32:12 AM 36.4106 -79.5278 131° Southeast 364 419 21,300 1,373 Climbing Washington Center
Sat 11:33:10 AM 36.3428 -79.4342 132° Southeast 353 406 22,700 864 Climbing Washington Center
Sat 11:34:10 AM 36.2747 -79.3408 132° Southeast 348 400 23,000 149 Climbing Washington Center
Sat 11:35:11 AM 36.2047 -79.2422 131° Southeast 360 414 23,000 -197 Level Washington Center
Sat 11:36:12 AM 36.1236 -79.1664 143° Southeast 366 421 22,600 -744 Descending Washington Center
Sat 11:37:12 AM 36.0242 -79.1439 170° South 356 410 21,500 -814 Descending Washington Center
Sat 11:38:10 AM 35.9267 -79.1242 171° South 356 410 21,000 -254 Descending Washington Center
Sat 11:39:10 AM 35.8292 -79.1069 172° South 356 410 21,000 -347 Level Washington Center
Sat 11:40:11 AM 35.7336 -79.0875 171° South 356 410 20,300 -1,033 Descending Washington Center
Sat 11:41:12 AM 35.6486 -79.0708 171° South 351 404 18,900 -1,563 Descending Washington Center
Sat 11:42:10 AM 35.5531 -79.0539 172° South 351 404 17,200 -1,462 Descending Washington Center
Sat 11:43:11 AM 35.4597 -79.0372 172° South 351 404 16,000 -595 Descending Washington Center
Sat 11:44:11 AM 35.3664 -79.0178 170° South 351 404 16,000  Level Washington Center
Sat 11:45:12 AM 35.2772 -78.9986 170° South 335 386 16,000  Level Washington Center
Sat 11:46:12 AM 35.1775 -78.9792 171° South 335 386 16,000  Level Washington Center
Sat 11:47:10 AM 35.0944 -78.9631 171° South 335 386 16,000  Level Washington Center
Sat 11:48:11 AM 34.9969 -78.9439 171° South 329 379 16,000  Level Washington Center
Sat 11:49:11 AM 34.9097 -78.9275 171° South 329 379 16,000  Level Washington Center
Sat 11:50:12 AM 34.8247 -78.9114 171° South 324 373 16,000  Level Washington Center
Sat 11:51:10 AM 34.7375 -78.8978 173° South 324 373 16,000  Level Washington Center
Sat 11:52:51 AM 34.5839 -78.8703 172° South 348 400 16,000 -224 Level Jacksonville Center
Sat 11:53:51 AM 34.4997 -78.8517 170° South 335 386 15,400 -1,500 Descending Jacksonville Center
Sat 11:54:51 AM 34.4181 -78.8403 173° South 315 362 13,000 -2,450 Descending Jacksonville Center
Sat 11:55:51 AM 34.3342 -78.8267 172° South 305 351 10,500 -2,500 Descending Jacksonville Center
Sat 11:56:51 AM 34.2564 -78.8103 170° South 295 339 8,000 -2,250 Descending Jacksonville Center
Sat 11:57:51 AM 34.1831 -78.7961 171° South 284 327 6,000 -1,800 Descending Jacksonville Center
Sat 11:58:51 AM 34.1139 -78.7842 172° South 267 307 4,400 -1,350 Descending Jacksonville Center
Sat 11:59:51 AM 34.0486 -78.7722 171° South 255 293 3,300 -1,250 Descending Jacksonville Center
Sat 12:00:51 PM 33.9903 -78.7675 176° South 231 266 1,900 -800 Descending Jacksonville Center
Sat 12:01:51 PM 33.9356 -78.7550 169° South 213 245 1,700 -350 Descending Jacksonville Center
Sat 12:02:51 PM 33.8825 -78.7325 161° South 203 234 1,200 -500 Descending Jacksonville Center

Login

Don't have an account? Register now (free) for customized features, flight alerts, and more!